Observation data for Denver City on 05/24/2020      Previous  Date  Next       Current Mesonet Observations  Soil Data  Daily Summary Page  Observations in Plain Language
KDVS 240500Z 18016G24KT 22/12 A2986 RMK A01 T02220117  RH  053%=      5-min Rain = 0
KDVS 240505Z 18015G21KT 22/12 A2986 RMK A01 T02210117  RH  054%=      5-min Rain = 0
KDVS 240510Z 18014G20KT 22/12 A2987 RMK A01 T02190117  RH  054%=      5-min Rain = 0
KDVS 240515Z 18015G20KT 22/12 A2987 RMK A01 T02180116  RH  054%=      5-min Rain = 0
KDVS 240520Z 17014KT 22/12 A2987 RMK A01 T02170115  RH  054%=      5-min Rain = 0
KDVS 240525Z 17015KT 22/12 A2987 RMK A01 T02160115  RH  054%=      5-min Rain = 0
KDVS 240530Z 17012KT 22/11 A2987 RMK A01 T02150114  RH  055%=      5-min Rain = 0
KDVS 240535Z 17012G18KT 21/11 A2987 RMK A01 T02130114  RH  055%=      5-min Rain = 0
KDVS 240540Z 17014G21KT 21/11 A2988 RMK A01 T02130114  RH  055%=      5-min Rain = 0
KDVS 240545Z 17014G19KT 21/11 A2988 RMK A01 T02120113  RH  055%=      5-min Rain = 0
KDVS 240550Z 16013G18KT 21/11 A2988 RMK A01 T02100112  RH  055%=      5-min Rain = 0
KDVS 240555Z 16013KT 21/11 A2988 RMK A01 T02090112  RH  056%=      5-min Rain = 0
KDVS 240600Z 16014KT 21/11 A2988 RMK A01 T02070112  RH  056%=      5-min Rain = 0
KDVS 240605Z 16014KT 21/11 A2988 RMK A01 T02060111  RH  056%=      5-min Rain = 0
KDVS 240610Z 16014KT 21/11 A2988 RMK A01 T02050111  RH  056%=      5-min Rain = 0
KDVS 240615Z 17014G20KT 21/11 A2988 RMK A01 T02050110  RH  057%=      5-min Rain = 0
KDVS 240620Z 16013G18KT 20/11 A2988 RMK A01 T02030110  RH  057%=      5-min Rain = 0
KDVS 240625Z 16014KT 20/11 A2988 RMK A01 T02020109  RH  057%=      5-min Rain = 0
KDVS 240630Z 16012KT 20/11 A2988 RMK A01 T02000108  RH  057%=      5-min Rain = 0
KDVS 240635Z 15013KT 20/11 A2988 RMK A01 T01990108  RH  058%=      5-min Rain = 0
KDVS 240640Z 14013KT 20/11 A2988 RMK A01 T01960108  RH  059%=      5-min Rain = 0
KDVS 240645Z 14011KT 19/11 A2988 RMK A01 T01930109  RH  060%=      5-min Rain = 0
KDVS 240650Z 14010KT 19/11 A2988 RMK A01 T01900110  RH  062%=      5-min Rain = 0
KDVS 240655Z 15010KT 19/11 A2987 RMK A01 T01890110  RH  062%=      5-min Rain = 0
KDVS 240700Z 15009KT 19/11 A2987 RMK A01 T01880111  RH  063%=      5-min Rain = 0
KDVS 240705Z 16010KT 19/11 A2987 RMK A01 T01860111  RH  064%=      5-min Rain = 0
KDVS 240710Z 15010KT 19/11 A2987 RMK A01 T01860112  RH  064%=      5-min Rain = 0
KDVS 240715Z 14010KT 18/11 A2987 RMK A01 T01840113  RH  065%=      5-min Rain = 0
KDVS 240720Z 15010KT 18/11 A2987 RMK A01 T01830111  RH  065%=      5-min Rain = 0
KDVS 240725Z 15011KT 18/11 A2987 RMK A01 T01840109  RH  064%=      5-min Rain = 0
KDVS 240730Z 15011KT 19/11 A2986 RMK A01 T01850108  RH  063%=      5-min Rain = 0
KDVS 240735Z 14011KT 19/11 A2986 RMK A01 T01850107  RH  062%=      5-min Rain = 0
KDVS 240740Z 15010KT 18/11 A2986 RMK A01 T01840106  RH  062%=      5-min Rain = 0
KDVS 240745Z 15011KT 18/11 A2986 RMK A01 T01830105  RH  062%=      5-min Rain = 0
KDVS 240750Z 15011KT 18/11 A2986 RMK A01 T01830105  RH  062%=      5-min Rain = 0
KDVS 240755Z 15011KT 18/11 A2986 RMK A01 T01840107  RH  063%=      5-min Rain = 0
KDVS 240800Z 15011KT 18/11 A2986 RMK A01 T01830108  RH  064%=      5-min Rain = 0
KDVS 240805Z 15010KT 18/11 A2986 RMK A01 T01810110  RH  065%=      5-min Rain = 0
KDVS 240810Z 15011KT 18/11 A2986 RMK A01 T01800111  RH  066%=      5-min Rain = 0
KDVS 240815Z 15011G16KT 18/11 A2986 RMK A01 T01810112  RH  067%=      5-min Rain = 0
KDVS 240820Z 15011KT 18/11 A2986 RMK A01 T01810113  RH  067%=      5-min Rain = 0
KDVS 240825Z 15011KT 18/11 A2986 RMK A01 T01800113  RH  067%=      5-min Rain = 0
KDVS 240830Z 15011KT 18/11 A2986 RMK A01 T01790114  RH  068%=      5-min Rain = 0
KDVS 240835Z 15010KT 18/11 A2986 RMK A01 T01780114  RH  068%=      5-min Rain = 0
KDVS 240840Z 15010KT 18/11 A2986 RMK A01 T01780113  RH  068%=      5-min Rain = 0
KDVS 240845Z 15011KT 18/11 A2986 RMK A01 T01780113  RH  068%=      5-min Rain = 0
KDVS 240850Z 15010KT 18/11 A2986 RMK A01 T01780114  RH  068%=      5-min Rain = 0
KDVS 240855Z 15009KT 18/11 A2986 RMK A01 T01760114  RH  069%=      5-min Rain = 0
KDVS 240900Z 16010KT 17/11 A2986 RMK A01 T01740113  RH  070%=      5-min Rain = 0
KDVS 240905Z 15009KT 17/11 A2986 RMK A01 T01740113  RH  070%=      5-min Rain = 0
KDVS 240910Z 15008KT 17/11 A2987 RMK A01 T01730113  RH  070%=      5-min Rain = 0
KDVS 240915Z 16008KT 17/11 A2987 RMK A01 T01720113  RH  071%=      5-min Rain = 0
KDVS 240920Z 16008KT 17/11 A2987 RMK A01 T01710113  RH  071%=      5-min Rain = 0
KDVS 240925Z 16008KT 17/11 A2987 RMK A01 T01710112  RH  071%=      5-min Rain = 0
KDVS 240930Z 16008KT 17/11 A2987 RMK A01 T01700112  RH  071%=      5-min Rain = 0
KDVS 240935Z 16007KT 17/11 A2987 RMK A01 T01680112  RH  072%=      5-min Rain = 0
KDVS 240940Z 16007KT 17/11 A2986 RMK A01 T01670112  RH  072%=      5-min Rain = 0
KDVS 240945Z 16007KT 17/11 A2986 RMK A01 T01660112  RH  073%=      5-min Rain = 0
KDVS 240950Z 16006KT 16/11 A2986 RMK A01 T01640112  RH  073%=      5-min Rain = 0
KDVS 240955Z 16006KT 16/11 A2986 RMK A01 T01620111  RH  075%=      5-min Rain = 0
KDVS 241000Z 17006KT 16/11 A2986 RMK A01 T01610112  RH  075%=      5-min Rain = 0
KDVS 241005Z 16006KT 16/11 A2986 RMK A01 T01610111  RH  075%=      5-min Rain = 0
KDVS 241010Z 16005KT 16/11 A2986 RMK A01 T01580110  RH  076%=      5-min Rain = 0
KDVS 241015Z 13005KT 15/11 A2986 RMK A01 T01510106  RH  077%=      5-min Rain = 0
KDVS 241020Z 14006KT 15/11 A2987 RMK A01 T01450106  RH  080%=      5-min Rain = 0
KDVS 241025Z 15006KT 14/11 A2986 RMK A01 T01420105  RH  081%=      5-min Rain = 0
KDVS 241030Z 14005KT 14/10 A2986 RMK A01 T01390104  RH  082%=      5-min Rain = 0
KDVS 241035Z 15006KT 14/10 A2986 RMK A01 T01370103  RH  083%=      5-min Rain = 0
KDVS 241040Z 15006KT 14/10 A2986 RMK A01 T01350103  RH  084%=      5-min Rain = 0
KDVS 241045Z 14006KT 13/10 A2986 RMK A01 T01330101  RH  084%=      5-min Rain = 0
KDVS 241050Z 12006KT 13/10 A2986 RMK A01 T01290099  RH  085%=      5-min Rain = 0
KDVS 241055Z 11006KT 13/10 A2987 RMK A01 T01260100  RH  087%=      5-min Rain = 0
KDVS 241100Z 13005KT 13/10 A2986 RMK A01 T01250101  RH  088%=      5-min Rain = 0
KDVS 241105Z 14006KT 13/10 A2986 RMK A01 T01250100  RH  088%=      5-min Rain = 0
KDVS 241110Z 14006KT 13/10 A2986 RMK A01 T01250101  RH  088%=      5-min Rain = 0
KDVS 241115Z 14006KT 12/10 A2986 RMK A01 T01240100  RH  088%=      5-min Rain = 0
KDVS 241120Z 13006KT 12/10 A2985 RMK A01 T01220099  RH  088%=      5-min Rain = 0
KDVS 241125Z 13007KT 12/10 A2985 RMK A01 T01200098  RH  089%=      5-min Rain = 0
KDVS 241130Z 14007KT 12/10 A2985 RMK A01 T01190098  RH  090%=      5-min Rain = 0
KDVS 241135Z 14007KT 12/10 A2985 RMK A01 T01200100  RH  090%=      5-min Rain = 0
KDVS 241140Z 15007KT 12/10 A2985 RMK A01 T01210100  RH  090%=      5-min Rain = 0
KDVS 241145Z 14007KT 12/10 A2985 RMK A01 T01210100  RH  090%=      5-min Rain = 0
KDVS 241150Z 14007KT 12/10 A2986 RMK A01 T01200100  RH  091%=      5-min Rain = 0
KDVS 241155Z 14006KT 12/10 A2986 RMK A01 T01200100  RH  091%=      5-min Rain = 0
KDVS 241200Z 14006KT 12/10 A2986 RMK A01 T01210102  RH  091%=      5-min Rain = 0
KDVS 241205Z 13005KT 12/10 A2986 RMK A01 T01230103  RH  091%=      5-min Rain = 0
KDVS 241210Z 12004KT 13/11 A2986 RMK A01 T01260106  RH  090%=      5-min Rain = 0
KDVS 241215Z 07002KT 13/11 A2987 RMK A01 T01290106  RH  089%=      5-min Rain = 0
KDVS 241220Z 06002KT 13/11 A2987 RMK A01 T01330108  RH  088%=      5-min Rain = 0
KDVS 241225Z 10002KT 14/11 A2988 RMK A01 T01390112  RH  087%=      5-min Rain = 0
KDVS 241230Z 12005KT 14/11 A2988 RMK A01 T01440111  RH  083%=      5-min Rain = 0
KDVS 241235Z 14006KT 15/11 A2987 RMK A01 T01470113  RH  083%=      5-min Rain = 0
KDVS 241240Z 15007KT 15/11 A2987 RMK A01 T01510114  RH  081%=      5-min Rain = 0
KDVS 241245Z 15007KT 16/12 A2987 RMK A01 T01580117  RH  080%=      5-min Rain = 0
KDVS 241250Z 13005KT 16/12 A2988 RMK A01 T01630117  RH  077%=      5-min Rain = 0
KDVS 241255Z 13004KT 17/12 A2988 RMK A01 T01650118  RH  076%=      5-min Rain = 0
KDVS 241300Z 14005KT 17/12 A2988 RMK A01 T01680118  RH  075%=      5-min Rain = 0
KDVS 241305Z 16006KT 17/12 A2988 RMK A01 T01720119  RH  074%=      5-min Rain = 0
KDVS 241310Z 15007KT 18/12 A2988 RMK A01 T01750119  RH  073%=      5-min Rain = 0
KDVS 241315Z 15007KT 18/12 A2988 RMK A01 T01760120  RH  072%=      5-min Rain = 0
KDVS 241320Z 16007KT 18/12 A2987 RMK A01 T01800120  RH  071%=      5-min Rain = 0
KDVS 241325Z 16008KT 18/12 A2987 RMK A01 T01800120  RH  071%=      5-min Rain = 0
KDVS 241330Z 18006KT 18/12 A2988 RMK A01 T01820121  RH  070%=      5-min Rain = 0
KDVS 241335Z 17008KT 18/12 A2988 RMK A01 T01840122  RH  070%=      5-min Rain = 0
KDVS 241340Z 17009KT 19/12 A2987 RMK A01 T01880123  RH  069%=      5-min Rain = 0
KDVS 241345Z 18009KT 19/12 A2987 RMK A01 T01920124  RH  067%=      5-min Rain = 0
KDVS 241350Z 18010KT 19/12 A2987 RMK A01 T01940124  RH  067%=      5-min Rain = 0
KDVS 241355Z 19009KT 19/13 A2987 RMK A01 T01940125  RH  067%=      5-min Rain = 0
KDVS 241400Z 20010KT 20/13 A2987 RMK A01 T01970125  RH  066%=      5-min Rain = 0
KDVS 241405Z 19011KT 20/13 A2987 RMK A01 T01980125  RH  065%=      5-min Rain = 0
KDVS 241410Z 19010KT 20/13 A2987 RMK A01 T02000125  RH  065%=      5-min Rain = 0
KDVS 241415Z 19010KT 20/13 A2987 RMK A01 T02020125  RH  064%=      5-min Rain = 0
KDVS 241420Z 19010KT 20/13 A2987 RMK A01 T02030125  RH  063%=      5-min Rain = 0
KDVS 241425Z 19010KT 21/13 A2987 RMK A01 T02070126  RH  062%=      5-min Rain = 0
KDVS 241430Z 20010KT 21/12 A2986 RMK A01 T02100124  RH  060%=      5-min Rain = 0
KDVS 241435Z 19010KT 21/13 A2986 RMK A01 T02110125  RH  060%=      5-min Rain = 0
KDVS 241440Z 21010KT 21/12 A2987 RMK A01 T02110124  RH  060%=      5-min Rain = 0
KDVS 241445Z 20010KT 21/12 A2987 RMK A01 T02130124  RH  059%=      5-min Rain = 0
KDVS 241450Z 20009KT 22/12 A2987 RMK A01 T02170124  RH  058%=      5-min Rain = 0
KDVS 241455Z 21009KT 22/12 A2986 RMK A01 T02170123  RH  057%=      5-min Rain = 0
KDVS 241500Z 21010KT 22/12 A2986 RMK A01 T02200122  RH  056%=      5-min Rain = 0
KDVS 241505Z 23009KT 22/12 A2986 RMK A01 T02200122  RH  055%=      5-min Rain = 0
KDVS 241510Z 22008KT 22/12 A2986 RMK A01 T02240121  RH  054%=      5-min Rain = 0
KDVS 241515Z 22007KT 23/12 A2986 RMK A01 T02270122  RH  053%=      5-min Rain = 0
KDVS 241520Z 23008KT 23/12 A2986 RMK A01 T02310120  RH  051%=      5-min Rain = 0
KDVS 241525Z 24008KT 23/12 A2986 RMK A01 T02330117  RH  050%=      5-min Rain = 0
KDVS 241530Z 22008KT 23/12 A2986 RMK A01 T02330117  RH  050%=      5-min Rain = 0
KDVS 241535Z 24008G13KT 24/12 A2986 RMK A01 T02370115  RH  048%=      5-min Rain = 0
KDVS 241540Z 24008KT 24/11 A2986 RMK A01 T02420114  RH  046%=      5-min Rain = 0
KDVS 241545Z 26007KT 25/11 A2985 RMK A01 T02460105  RH  042%=      5-min Rain = 0
KDVS 241550Z 25008KT 25/11 A2985 RMK A01 T02490108  RH  043%=      5-min Rain = 0
KDVS 241555Z 25007KT 25/11 A2985 RMK A01 T02490105  RH  042%=      5-min Rain = 0
KDVS 241600Z 25005KT 26/10 A2985 RMK A01 T02550099  RH  039%=      5-min Rain = 0
KDVS 241605Z 26006KT 26/09 A2985 RMK A01 T02550093  RH  037%=      5-min Rain = 0
KDVS 241610Z 26003KT 26/09 A2985 RMK A01 T02560090  RH  036%=      5-min Rain = 0
KDVS 241615Z 22003KT 26/09 A2985 RMK A01 T02590089  RH  035%=      5-min Rain = 0
KDVS 241620Z 24005KT 26/08 A2985 RMK A01 T02630083  RH  033%=      5-min Rain = 0
KDVS 241625Z 22003KT 27/08 A2985 RMK A01 T02650081  RH  032%=      5-min Rain = 0
KDVS 241630Z 23004KT 27/08 A2985 RMK A01 T02670081  RH  032%=      5-min Rain = 0
KDVS 241635Z 24003KT 27/07 A2985 RMK A01 T02690073  RH  030%=      5-min Rain = 0
KDVS 241640Z 23005KT 27/07 A2985 RMK A01 T02710073  RH  029%=      5-min Rain = 0
KDVS 241645Z 20004G9KT 27/07 A2985 RMK A01 T02730068  RH  028%=      5-min Rain = 0
KDVS 241650Z 23003KT 27/07 A2985 RMK A01 T02740066  RH  027%=      5-min Rain = 0
KDVS 241655Z 20003KT 28/07 A2985 RMK A01 T02820065  RH  026%=      5-min Rain = 0
KDVS 241700Z 24004KT 28/07 A2985 RMK A01 T02840066  RH  026%=      5-min Rain = 0
KDVS 241705Z 25004KT 28/06 A2985 RMK A01 T02830062  RH  025%=      5-min Rain = 0
KDVS 241710Z 25001KT 28/06 A2985 RMK A01 T02830056  RH  024%=      5-min Rain = 0
KDVS 241715Z 35002KT 29/05 A2985 RMK A01 T02850053  RH  023%=      5-min Rain = 0
KDVS 241720Z 21001KT 29/06 A2984 RMK A01 T02900055  RH  023%=      5-min Rain = 0
KDVS 241725Z 29002KT 29/06 A2984 RMK A01 T02930058  RH  023%=      5-min Rain = 0
KDVS 241730Z 24002KT 30/06 A2984 RMK A01 T02950058  RH  023%=      5-min Rain = 0
KDVS 241735Z 30003KT 30/06 A2984 RMK A01 T02970056  RH  022%=      5-min Rain = 0
KDVS 241740Z 28004KT 30/04 A2984 RMK A01 T03000041  RH  020%=      5-min Rain = 0
KDVS 241745Z 34005KT 30/03 A2984 RMK A01 T03000034  RH  019%=      5-min Rain = 0
KDVS 241750Z 36004KT 30/03 A2984 RMK A01 T03000030  RH  018%=      5-min Rain = 0
KDVS 241755Z 29005KT 31/02 A2983 RMK A01 T03050017  RH  016%=      5-min Rain = 0
KDVS 241800Z 20005G10KT 31/01 A2983 RMK A01 T03080010  RH  015%=      5-min Rain = 0
KDVS 241805Z 23006KT 31/01 A2983 RMK A01 T03130007  RH  014%=      5-min Rain = 0
KDVS 241810Z 24005G10KT 31/01 A2983 RMK A01 T03080007  RH  015%=      5-min Rain = 0
KDVS 241815Z 24005KT 31/M00 A2983 RMK A01 T03101002  RH  014%=      5-min Rain = 0
KDVS 241820Z 23006KT 31/M02 A2982 RMK A01 T03111020  RH  012%=      5-min Rain = 0
KDVS 241825Z 20004KT 31/M02 A2982 RMK A01 T03091021  RH  012%=      5-min Rain = 0
KDVS 241830Z 27004KT 31/M01 A2982 RMK A01 T03121006  RH  013%=      5-min Rain = 0
KDVS 241835Z 30007G12KT 31/00 A2981 RMK A01 T03120001  RH  014%=      5-min Rain = 0
KDVS 241840Z 30005KT 31/00 A2981 RMK A01 T03110001  RH  014%=      5-min Rain = 0
KDVS 241845Z 26005G11KT 31/M00 A2981 RMK A01 T03141002  RH  013%=      5-min Rain = 0
KDVS 241850Z 29005KT 32/M00 A2981 RMK A01 T03191004  RH  013%=      5-min Rain = 0
KDVS 241855Z 28006G11KT 32/M01 A2981 RMK A01 T03171011  RH  012%=      5-min Rain = 0
KDVS 241900Z 24003KT 32/M02 A2981 RMK A01 T03151017  RH  012%=      5-min Rain = 0
KDVS 241905Z 23006G11KT 31/M02 A298 RMK A01 T03141020  RH  012%=      5-min Rain = 0
KDVS 241910Z 24006KT 31/M02 A298 RMK A01 T03141023  RH  011%=      5-min Rain = 0
KDVS 241915Z 25006G14KT 32/M03 A298 RMK A01 T03171033  RH  010%=      5-min Rain = 0
KDVS 241920Z 24011G16KT 33/M04 A298 RMK A01 T03261044  RH  009%=      5-min Rain = 0
KDVS 241925Z 23012G19KT 33/M04 A2979 RMK A01 T03261040  RH  009%=      5-min Rain = 0
KDVS 241930Z 19007G17KT 32/M04 A2979 RMK A01 T03231041  RH  009%=      5-min Rain = 0
KDVS 241935Z 15006G11KT 33/M04 A2979 RMK A01 T03261041  RH  009%=      5-min Rain = 0
KDVS 241940Z 17008G15KT 33/M04 A2979 RMK A01 T03311043  RH  009%=      5-min Rain = 0
KDVS 241945Z 18007G12KT 33/M04 A2978 RMK A01 T03311043  RH  009%=      5-min Rain = 0
KDVS 241950Z 22012KT 33/M04 A2978 RMK A01 T03321041  RH  009%=      5-min Rain = 0
KDVS 241955Z 18013G19KT 33/M04 A2978 RMK A01 T03311043  RH  009%=      5-min Rain = 0
KDVS 242000Z 16006G13KT 33/M04 A2978 RMK A01 T03291042  RH  009%=      5-min Rain = 0
KDVS 242005Z 16005G15KT 33/M04 A2978 RMK A01 T03291039  RH  009%=      5-min Rain = 0
KDVS 242010Z 16006G14KT 33/M04 A2977 RMK A01 T03301039  RH  009%=      5-min Rain = 0
KDVS 242015Z 23009G22KT 34/M04 A2977 RMK A01 T03351037  RH  009%=      5-min Rain = 0
KDVS 242020Z 28009KT 33/M04 A2977 RMK A01 T03311038  RH  009%=      5-min Rain = 0
KDVS 242025Z 30009KT 33/M04 A2977 RMK A01 T03261041  RH  009%=      5-min Rain = 0
KDVS 242030Z 29007KT 32/M04 A2976 RMK A01 T03211042  RH  009%=      5-min Rain = 0
KDVS 242035Z 23010G15KT 33/M05 A2976 RMK A01 T03271053  RH  008%=      5-min Rain = 0
KDVS 242040Z 22008G16KT 33/M05 A2976 RMK A01 T03311053  RH  008%=      5-min Rain = 0
KDVS 242045Z 24010KT 33/M06 A2976 RMK A01 T03331055  RH  008%=      5-min Rain = 0
KDVS 242050Z 20003G8KT 32/M06 A2975 RMK A01 T03231057  RH  008%=      5-min Rain = 0
KDVS 242055Z 22008KT 33/M05 A2975 RMK A01 T03281054  RH  008%=      5-min Rain = 0
KDVS 242100Z 28008KT 34/M05 A2975 RMK A01 T03351051  RH  008%=      5-min Rain = 0
KDVS 242105Z 27005G10KT 33/M05 A2974 RMK A01 T03261053  RH  008%=      5-min Rain = 0
KDVS 242110Z 26006G12KT 32/M05 A2974 RMK A01 T03231054  RH  009%=      5-min Rain = 0
KDVS 242115Z 24012KT 33/M06 A2974 RMK A01 T03311056  RH  008%=      5-min Rain = 0
KDVS 242120Z 26007G15KT 33/M06 A2973 RMK A01 T03251059  RH  008%=      5-min Rain = 0
KDVS 242125Z 26006G13KT 32/M06 A2973 RMK A01 T03211059  RH  008%=      5-min Rain = 0
KDVS 242130Z 25010G15KT 33/M06 A2973 RMK A01 T03281058  RH  008%=      5-min Rain = 0
KDVS 242135Z 23009G18KT 33/M06 A2972 RMK A01 T03301058  RH  008%=      5-min Rain = 0
KDVS 242140Z 25014KT 33/M06 A2972 RMK A01 T03281064  RH  008%=      5-min Rain = 0
KDVS 242145Z 22013KT 33/M06 A2972 RMK A01 T03271063  RH  008%=      5-min Rain = 0
KDVS 242150Z 23010KT 33/M06 A2971 RMK A01 T03321063  RH  007%=      5-min Rain = 0
KDVS 242155Z 22004KT 33/M06 A2971 RMK A01 T03291063  RH  008%=      5-min Rain = 0
KDVS 242200Z 27007G12KT 33/M06 A2971 RMK A01 T03311063  RH  008%=      5-min Rain = 0
KDVS 242205Z 26015G21KT 34/M07 A297 RMK A01 T03351067  RH  007%=      5-min Rain = 0
KDVS 242210Z 26013G22KT 34/M07 A297 RMK A01 T03351066  RH  007%=      5-min Rain = 0
KDVS 242215Z 24013G19KT 33/M07 A297 RMK A01 T03331065  RH  007%=      5-min Rain = 0
KDVS 242220Z 25009G18KT 33/M07 A297 RMK A01 T03281065  RH  008%=      5-min Rain = 0
KDVS 242225Z 21012G19KT 32/M06 A2969 RMK A01 T03241064  RH  008%=      5-min Rain = 0
KDVS 242230Z 21011G18KT 33/M06 A2969 RMK A01 T03301064  RH  008%=      5-min Rain = 0
KDVS 242235Z 24012KT 33/M06 A2969 RMK A01 T03321061  RH  008%=      5-min Rain = 0
KDVS 242240Z 26012G18KT 33/M06 A2969 RMK A01 T03291059  RH  008%=      5-min Rain = 0
KDVS 242245Z 30007KT 33/M06 A2969 RMK A01 T03281059  RH  008%=      5-min Rain = 0
KDVS 242250Z 24008KT 33/M06 A2969 RMK A01 T03301058  RH  008%=      5-min Rain = 0
KDVS 242255Z 25011G19KT 33/M06 A2969 RMK A01 T03341057  RH  008%=      5-min Rain = 0
KDVS 242300Z 26016G23KT 34/M06 A2968 RMK A01 T03351063  RH  007%=      5-min Rain = 0
KDVS 242305Z 26014G20KT 33/M06 A2968 RMK A01 T03301064  RH  008%=      5-min Rain = 0
KDVS 242310Z 26013G19KT 33/M06 A2969 RMK A01 T03301064  RH  008%=      5-min Rain = 0
KDVS 242315Z 25014G19KT 33/M07 A2968 RMK A01 T03301066  RH  007%=      5-min Rain = 0
KDVS 242320Z 24017G22KT 33/M07 A2968 RMK A01 T03291072  RH  007%=      5-min Rain = 0
KDVS 242325Z 24012G20KT 33/M07 A2968 RMK A01 T03291074  RH  007%=      5-min Rain = 0
KDVS 242330Z 22009G14KT 32/M07 A2968 RMK A01 T03241074  RH  007%=      5-min Rain = 0
KDVS 242335Z 22010G16KT 32/M07 A2967 RMK A01 T03241070  RH  007%=      5-min Rain = 0
KDVS 242340Z 22014KT 32/M07 A2967 RMK A01 T03241074  RH  007%=      5-min Rain = 0
KDVS 242345Z 23010KT 32/M08 A2967 RMK A01 T03211076  RH  007%=      5-min Rain = 0
KDVS 242350Z 26012G17KT 32/M07 A2967 RMK A01 T03241074  RH  007%=      5-min Rain = 0
KDVS 242355Z 25011G16KT 32/M07 A2967 RMK A01 T03211073  RH  007%=      5-min Rain = 0
KDVS 250000Z 26009KT 32/M07 A2967 RMK A01 T03231073  RH  007%=      5-min Rain = 0
KDVS 250005Z 25012G18KT 32/M07 A2967 RMK A01 T03221074  RH  007%=      5-min Rain = 0
KDVS 250010Z 24009G15KT 32/M08 A2967 RMK A01 T03211077  RH  007%=      5-min Rain = 0
KDVS 250015Z 24011G18KT 32/M08 A2967 RMK A01 T03201077  RH  007%=      5-min Rain = 0
KDVS 250020Z 24007KT 32/M08 A2967 RMK A01 T03191075  RH  007%=      5-min Rain = 0
KDVS 250025Z 25011G17KT 32/M08 A2967 RMK A01 T03221075  RH  007%=      5-min Rain = 0
KDVS 250030Z 25011KT 32/M08 A2967 RMK A01 T03201078  RH  007%=      5-min Rain = 0
KDVS 250035Z 22009KT 32/M08 A2967 RMK A01 T03201079  RH  007%=      5-min Rain = 0
KDVS 250040Z 24008KT 32/M08 A2967 RMK A01 T03201077  RH  007%=      5-min Rain = 0
KDVS 250045Z 24008KT 32/M08 A2967 RMK A01 T03191076  RH  007%=      5-min Rain = 0
KDVS 250050Z 25010KT 32/M08 A2967 RMK A01 T03181076  RH  007%=      5-min Rain = 0
KDVS 250055Z 25011KT 32/M08 A2967 RMK A01 T03161076  RH  007%=      5-min Rain = 0
KDVS 250100Z 25012KT 31/M08 A2967 RMK A01 T03141077  RH  007%=      5-min Rain = 0
KDVS 250105Z 26011KT 31/M08 A2967 RMK A01 T03141076  RH  008%=      5-min Rain = 0
KDVS 250110Z 25008KT 31/M08 A2967 RMK A01 T03131076  RH  008%=      5-min Rain = 0
KDVS 250115Z 26009KT 31/M08 A2967 RMK A01 T03111076  RH  008%=      5-min Rain = 0
KDVS 250120Z 25009G14KT 31/M08 A2966 RMK A01 T03101075  RH  008%=      5-min Rain = 0
KDVS 250125Z 23006G11KT 31/M07 A2967 RMK A01 T03081073  RH  008%=      5-min Rain = 0
KDVS 250130Z 12006G12KT 29/01 A2967 RMK A01 T02940012  RH  017%=      5-min Rain = 0
KDVS 250135Z 16014G20KT 27/02 A2967 RMK A01 T02730018  RH  020%=      5-min Rain = 0
KDVS 250140Z 16013KT 27/02 A2968 RMK A01 T02650018  RH  020%=      5-min Rain = 0
KDVS 250145Z 16012G17KT 26/02 A2969 RMK A01 T02600015  RH  021%=      5-min Rain = 0
KDVS 250150Z 15016G21KT 26/02 A2969 RMK A01 T02560015  RH  021%=      5-min Rain = 0
KDVS 250155Z 15016G21KT 25/01 A2969 RMK A01 T02530014  RH  021%=      5-min Rain = 0
KDVS 250200Z 15017G23KT 25/01 A297 RMK A01 T02510014  RH  022%=      5-min Rain = 0
KDVS 250205Z 15015G21KT 25/01 A297 RMK A01 T02490014  RH  022%=      5-min Rain = 0
KDVS 250210Z 16014G19KT 25/01 A297 RMK A01 T02470013  RH  022%=      5-min Rain = 0
KDVS 250215Z 15016G23KT 25/01 A297 RMK A01 T02460012  RH  022%=      5-min Rain = 0
KDVS 250220Z 15016KT 25/01 A297 RMK A01 T02460010  RH  022%=      5-min Rain = 0
KDVS 250225Z 15016G23KT 25/01 A297 RMK A01 T02460009  RH  021%=      5-min Rain = 0
KDVS 250230Z 16015KT 25/01 A297 RMK A01 T02450008  RH  021%=      5-min Rain = 0
KDVS 250235Z 16014G19KT 24/01 A297 RMK A01 T02440008  RH  021%=      5-min Rain = 0
KDVS 250240Z 16015G20KT 24/01 A297 RMK A01 T02430009  RH  022%=      5-min Rain = 0
KDVS 250245Z 16014G19KT 24/01 A2971 RMK A01 T02420010  RH  022%=      5-min Rain = 0
KDVS 250250Z 16013KT 24/01 A2971 RMK A01 T02400011  RH  023%=      5-min Rain = 0
KDVS 250255Z 15013G18KT 24/01 A2971 RMK A01 T02390012  RH  023%=      5-min Rain = 0
KDVS 250300Z 15011KT 24/01 A2971 RMK A01 T02370013  RH  023%=      5-min Rain = 0
KDVS 250305Z 14011KT 24/01 A2971 RMK A01 T02360014  RH  024%=      5-min Rain = 0
KDVS 250310Z 12009KT 23/02 A297 RMK A01 T02340015  RH  024%=      5-min Rain = 0
KDVS 250315Z 09009KT 23/02 A297 RMK A01 T02320016  RH  025%=      5-min Rain = 0
KDVS 250320Z 08009KT 23/02 A297 RMK A01 T02290019  RH  026%=      5-min Rain = 0
KDVS 250325Z 08010KT 23/03 A297 RMK A01 T02270027  RH  027%=      5-min Rain = 0
KDVS 250330Z 10009KT 23/03 A297 RMK A01 T02260031  RH  028%=      5-min Rain = 0
KDVS 250335Z 12009KT 23/03 A297 RMK A01 T02260031  RH  028%=      5-min Rain = 0
KDVS 250340Z 12010KT 23/03 A297 RMK A01 T02260032  RH  028%=      5-min Rain = 0
KDVS 250345Z 11011KT 23/03 A297 RMK A01 T02260033  RH  029%=      5-min Rain = 0
KDVS 250350Z 11012KT 22/03 A297 RMK A01 T02230033  RH  029%=      5-min Rain = 0
KDVS 250355Z 11014KT 22/03 A297 RMK A01 T02230032  RH  029%=      5-min Rain = 0
KDVS 250400Z 10012KT 22/03 A297 RMK A01 T02220033  RH  029%=      5-min Rain = 0
KDVS 250405Z 08005G10KT 22/03 A2971 RMK A01 T02230033  RH  029%=      5-min Rain = 0
KDVS 250410Z 11007KT 22/03 A297 RMK A01 T02220033  RH  029%=      5-min Rain = 0
KDVS 250415Z 10008KT 22/04 A2971 RMK A01 T02200035  RH  030%=      5-min Rain = 0
KDVS 250420Z 10009KT 22/04 A2972 RMK A01 T02180036  RH  031%=      5-min Rain = 0
KDVS 250425Z 09011G20KT 22/04 A2973 RMK A01 T02150040  RH  032%=      5-min Rain = 0
KDVS 250430Z 10017G23KT 21/05 A2974 RMK A01 T02110054  RH  037%=      5-min Rain = 0
KDVS 250435Z 11019KT 20/06 A2975 RMK A01 T02040061  RH  040%=      5-min Rain = 0
KDVS 250440Z 11017G22KT 20/07 A2977 RMK A01 T01990066  RH  043%=      5-min Rain = 0
KDVS 250445Z 11018G24KT 20/07 A2978 RMK A01 T01950071  RH  046%=      5-min Rain = 0
KDVS 250450Z 11015G21KT 19/07 A2979 RMK A01 T01920073  RH  047%=      5-min Rain = 0
KDVS 250455Z 11012G21KT 19/07 A2979 RMK A01 T01910072  RH  047%=      5-min Rain = 0

Page generated in 0.0516 seconds.